KRID/RID METAR and TAF weather

Enter ICAO airport designator
Station Type Date Time Source
KRID METAR 2019/08/25 18:55 UTC NOAA

KRID 251855Z AUTO 09009KT 10SM CLR 25/17 A3009 RMK AO2


Station Type Date Time Source
KRID Decoded METAR 2019/08/25 18:55 UTC NOAA

Station name not available
Aug 25, 2019 - 02:55 PM EDT / 2019.08.25 1855 UTC
Wind: from the E (090 degrees) at 10 MPH (9 KT):0
Visibility: 10 mile(s):0
Sky conditions: clear
Temperature: 77 F (25 C)
Dew Point: 62 F (17 C)
Relative Humidity: 61%
Pressure (altimeter): 30.09 in. Hg (1018 hPa)
ob: KRID 251855Z AUTO 09009KT 10SM CLR 25/17 A3009 RMK AO2
cycle: 19

Station Type Date Time Source
KRID TAF UTC NOAA

Error!

Example: see airport list